Time;durP1;ratioP1;P1;durP2;ratioP2;P2;SDS_P1;SDS_P2;PMS_P1;PMS_P2;Temp;Humidity;BMP_temperature;BMP_pressure;BME280_temperature;BME280_humidity;BME280_pressure;Samples;Min_cycle;Max_cycle;Signal;HPM_P1;HPM_P2
2022/11/30 00:04:01;;;;;;;35.10;19.43;;;9.40;99.90;;;;;;6303416;22;20547;-84
2022/11/30 00:07:57;;;;;;;;;;;;;;;;;;;;;
2022/11/30 00:11:03;;;;;;;38.30;18.57;;;9.30;99.90;;;;;;6058863;23;20452;-85
2022/11/30 00:14:29;;;;;;;37.77;21.83;;;9.40;99.90;;;;;;6137078;23;20403;-84
2022/11/30 00:32:34;;;;;;;36.07;19.73;;;9.50;99.90;;;;;;6251618;22;20467;-85
2022/11/30 00:39:30;;;;;;;;;;;;;;;;;;;;;
2022/11/30 00:48:24;;;;;;;;;;;;;;;;;;;;;
2022/11/30 01:32:10;;;;;;;56.00;23.17;;;9.30;99.90;;;;;;6293600;22;20502;-87
2022/11/30 01:54:37;;;;;;;39.97;21.27;;;9.40;99.90;;;;;;6049240;23;20443;-84
2022/11/30 01:57:34;;;;;;;41.60;21.83;;;9.30;99.90;;;;;;6126459;23;20456;-85
2022/11/30 02:00:13;;;;;;;44.83;21.90;;;9.30;99.90;;;;;;6127282;23;21472;-85
2022/11/30 02:03:10;;;;;;;42.87;23.33;;;9.30;99.90;;;;;;6126434;23;20416;-86
2022/11/30 02:05:42;;;;;;;53.10;24.60;;;9.30;99.90;;;;;;6126056;23;20416;-85
2022/11/30 02:08:09;;;;;;;49.60;22.10;;;9.30;99.90;;;;;;6137257;23;20479;-84
2022/11/30 02:10:43;;;;;;;45.67;21.33;;;9.30;99.90;;;;;;6140705;23;20440;-84
2022/11/30 02:13:34;;;;;;;45.73;23.30;;;9.30;99.90;;;;;;6140205;23;20452;-85
2022/11/30 02:16:22;;;;;;;47.80;23.10;;;9.40;99.90;;;;;;6226058;23;20508;-83
2022/11/30 02:19:09;;;;;;;47.03;23.17;;;9.30;99.90;;;;;;6235871;23;20484;-84
2022/11/30 02:21:51;;;;;;;43.93;21.23;;;9.30;99.90;;;;;;6253351;23;20424;-85
2022/11/30 02:24:24;;;;;;;49.17;23.70;;;9.30;99.90;;;;;;6218579;23;20496;-84
2022/11/30 02:26:57;;;;;;;49.90;24.60;;;9.30;99.90;;;;;;6241607;22;20496;-84
2022/11/30 02:30:01;;;;;;;40.10;20.37;;;9.30;99.90;;;;;;6242590;23;20548;-84
2022/11/30 02:32:34;;;;;;;46.07;21.20;;;9.30;99.90;;;;;;6168411;23;20420;-85
2022/11/30 02:35:03;;;;;;;43.93;22.20;;;9.30;99.90;;;;;;6217315;23;20451;-86
2022/11/30 02:44:00;;;;;;;41.40;21.13;;;9.30;99.90;;;;;;6266019;22;20412;-85
2022/11/30 02:46:51;;;;;;;46.80;20.90;;;9.30;99.90;;;;;;6249929;22;20523;-86
2022/11/30 02:49:32;;;;;;;39.67;19.53;;;9.40;99.90;;;;;;6248866;22;20435;-85
2022/11/30 02:52:09;;;;;;;41.43;18.60;;;9.40;99.90;;;;;;6249789;22;20407;-85
2022/11/30 02:57:49;;;;;;;40.90;19.40;;;9.30;99.90;;;;;;6220490;22;20416;-85
2022/11/30 03:00:27;;;;;;;35.73;19.17;;;9.30;99.90;;;;;;6253022;22;20752;-85
2022/11/30 03:03:13;;;;;;;40.80;18.87;;;9.30;99.90;;;;;;6255482;22;20415;-85
2022/11/30 03:05:40;;;;;;;36.33;18.17;;;9.30;99.90;;;;;;6266696;22;20754;-85
2022/11/30 03:08:07;;;;;;;33.87;17.43;;;9.40;99.90;;;;;;6268455;22;20553;-84
2022/11/30 03:10:33;;;;;;;41.63;19.37;;;9.40;99.90;;;;;;6241008;22;20568;-86
2022/11/30 03:13:15;;;;;;;40.33;19.57;;;9.40;99.90;;;;;;6287460;22;20412;-85
2022/11/30 03:16:08;;;;;;;34.53;16.87;;;9.40;99.90;;;;;;6256747;22;20418;-85
2022/11/30 03:18:35;;;;;;;35.07;18.07;;;9.30;99.90;;;;;;6281170;22;20437;-85
2022/11/30 03:21:10;;;;;;;40.37;20.90;;;9.30;99.90;;;;;;6253052;22;20476;-86
2022/11/30 03:23:37;;;;;;;39.07;18.70;;;9.30;99.90;;;;;;6279436;22;20498;-84
2022/11/30 03:26:06;;;;;;;35.33;18.10;;;9.40;99.90;;;;;;6280314;22;20525;-83
2022/11/30 03:28:44;;;;;;;36.93;18.27;;;9.40;99.90;;;;;;6282559;22;20444;-84
2022/11/30 03:31:27;;;;;;;36.53;17.60;;;9.40;99.90;;;;;;6257609;22;20495;-85
2022/11/30 03:34:02;;;;;;;37.83;18.37;;;9.40;99.90;;;;;;6252170;22;20569;-83
2022/11/30 03:36:45;;;;;;;41.07;19.80;;;9.40;99.90;;;;;;6244542;22;20427;-85
2022/11/30 03:39:23;;;;;;;39.60;19.00;;;9.30;99.90;;;;;;6249532;22;20434;-85
2022/11/30 03:42:02;;;;;;;41.13;19.43;;;9.40;99.90;;;;;;6251751;22;20430;-85
2022/11/30 03:44:38;;;;;;;38.13;20.07;;;9.40;99.90;;;;;;6249607;22;20419;-85
2022/11/30 03:47:04;;;;;;;39.97;20.23;;;9.40;99.90;;;;;;6274445;22;20783;-84
2022/11/30 03:49:31;;;;;;;37.27;18.50;;;9.40;99.90;;;;;;6248556;22;20457;-86
2022/11/30 03:51:58;;;;;;;34.17;18.70;;;9.40;99.90;;;;;;6275547;22;20506;-85
2022/11/30 03:54:25;;;;;;;36.00;19.63;;;9.50;99.90;;;;;;6275160;22;20407;-84
2022/11/30 03:56:51;;;;;;;35.67;19.27;;;9.60;99.90;;;;;;6277444;22;20663;-85
2022/11/30 03:59:21;;;;;;;37.90;17.70;;;9.50;99.90;;;;;;6257643;22;20415;-86
2022/11/30 04:01:53;;;;;;;38.60;20.57;;;9.40;99.90;;;;;;6254463;22;20410;-86
2022/11/30 04:04:35;;;;;;;42.47;19.87;;;9.40;99.90;;;;;;6251516;22;20427;-85
2022/11/30 04:07:22;;;;;;;36.23;19.10;;;9.40;99.90;;;;;;6252912;22;20420;-86
2022/11/30 04:09:58;;;;;;;37.23;19.17;;;9.40;99.90;;;;;;6250568;22;20443;-85
2022/11/30 04:12:43;;;;;;;41.47;20.30;;;9.40;99.90;;;;;;6249732;22;21124;-86
2022/11/30 04:15:23;;;;;;;46.53;21.30;;;9.30;99.90;;;;;;6249535;22;20466;-84
2022/11/30 04:18:00;;;;;;;46.80;23.50;;;9.40;99.90;;;;;;6251298;22;20404;-85
2022/11/30 04:20:36;;;;;;;44.70;21.00;;;9.40;99.90;;;;;;6250083;22;20423;-87
2022/11/30 04:23:07;;;;;;;43.73;21.57;;;9.40;99.90;;;;;;6275821;22;20422;-85
2022/11/30 04:25:36;;;;;;;54.47;21.70;;;9.60;99.90;;;;;;6247908;22;20419;-84
2022/11/30 04:28:08;;;;;;;46.40;22.13;;;9.50;99.90;;;;;;6248213;22;20443;-86
2022/11/30 04:30:36;;;;;;;45.30;21.77;;;9.50;99.90;;;;;;6248314;22;20432;-85
2022/11/30 04:33:04;;;;;;;42.73;22.00;;;9.50;99.90;;;;;;6250405;22;20412;-85
2022/11/30 04:35:31;;;;;;;44.67;22.20;;;9.50;99.90;;;;;;6275541;22;20461;-86
2022/11/30 04:37:59;;;;;;;47.43;23.40;;;9.40;99.90;;;;;;6248609;22;20851;-85
2022/11/30 04:40:26;;;;;;;46.47;22.10;;;9.50;99.90;;;;;;6248287;22;20495;-86
2022/11/30 04:42:55;;;;;;;42.03;21.40;;;9.50;99.90;;;;;;6274727;22;20462;-86
2022/11/30 04:45:22;;;;;;;43.67;22.67;;;9.50;99.90;;;;;;6273972;22;20408;-86
2022/11/30 04:47:49;;;;;;;45.07;21.87;;;9.40;99.90;;;;;;6247536;22;20489;-85
2022/11/30 04:50:22;;;;;;;45.27;22.60;;;9.50;99.90;;;;;;6248717;22;20419;-86
2022/11/30 04:53:14;;;;;;;45.00;22.00;;;9.50;99.90;;;;;;6249344;22;20412;-85
2022/11/30 04:55:43;;;;;;;43.20;22.40;;;9.50;99.90;;;;;;6248729;22;20443;-85
2022/11/30 04:58:10;;;;;;;46.53;21.87;;;9.60;99.90;;;;;;6275914;22;20464;-86
2022/11/30 05:00:36;;;;;;;45.93;21.80;;;9.60;99.90;;;;;;6249273;22;20408;-85
2022/11/30 05:03:25;;;;;;;45.33;21.83;;;9.50;99.90;;;;;;6276604;22;20697;-86
2022/11/30 05:06:05;;;;;;;39.90;21.40;;;9.60;99.90;;;;;;6251642;22;20954;-86
2022/11/30 05:08:42;;;;;;;43.43;21.43;;;9.50;99.90;;;;;;6249043;22;20454;-85
2022/11/30 05:11:13;;;;;;;40.17;19.43;;;9.60;99.90;;;;;;6251848;22;20457;-83
2022/11/30 05:13:42;;;;;;;34.80;19.83;;;9.50;99.90;;;;;;6252008;22;20412;-84
2022/11/30 05:16:09;;;;;;;43.07;22.63;;;9.50;99.90;;;;;;6282671;22;20432;-85
2022/11/30 05:18:36;;;;;;;32.93;18.27;;;9.50;99.90;;;;;;6276414;22;20446;-84
2022/11/30 05:21:07;;;;;;;36.33;19.20;;;9.50;99.90;;;;;;6221678;23;20464;-83
2022/11/30 05:23:34;;;;;;;40.17;20.87;;;9.50;99.90;;;;;;6220774;23;20421;-84
2022/11/30 05:26:02;;;;;;;36.80;20.03;;;9.50;99.90;;;;;;6221753;23;20536;-85
2022/11/30 05:28:29;;;;;;;40.60;20.70;;;9.40;99.90;;;;;;6248463;23;20467;-84
2022/11/30 05:31:26;;;;;;;38.50;19.57;;;9.60;99.90;;;;;;6221727;23;20409;-83
2022/11/30 05:34:10;;;;;;;37.27;19.63;;;9.60;99.90;;;;;;6249775;23;20412;-85
2022/11/30 05:37:22;;;;;;;;;;;;;;;;;;;;;
2022/11/30 05:40:34;;;;;;;38.10;19.70;;;9.50;99.90;;;;;;6245159;23;20498;-86
2022/11/30 05:43:43;;;;;;;33.77;18.93;;;9.50;99.90;;;;;;6225674;23;20416;-83
2022/11/30 05:46:21;;;;;;;33.20;19.43;;;9.50;99.90;;;;;;6223917;23;20467;-84
2022/11/30 05:49:22;;;;;;;37.50;21.37;;;9.60;99.90;;;;;;6225659;23;20491;-85
2022/11/30 05:52:08;;;;;;;40.50;21.47;;;9.50;99.90;;;;;;6223704;23;20941;-85
2022/11/30 05:54:58;;;;;;;52.40;26.10;;;9.60;99.90;;;;;;6217022;23;20436;-85
2022/11/30 06:00:25;;;;;;;49.40;24.90;;;9.60;99.90;;;;;;6275914;22;20440;-85
2022/11/30 06:03:38;;;;;;;48.53;24.57;;;9.50;99.90;;;;;;6283944;22;20887;-83
2022/11/30 06:06:55;;;;;;;56.30;27.50;;;9.50;99.90;;;;;;6263613;22;20423;-86
2022/11/30 06:09:43;;;;;;;55.57;26.60;;;9.50;99.90;;;;;;6252636;22;20439;-86
2022/11/30 06:12:50;;;;;;;44.50;25.57;;;9.40;99.90;;;;;;6247776;22;20407;-84
2022/11/30 06:15:27;;;;;;;44.70;25.27;;;9.40;99.90;;;;;;6247042;22;20875;-85
2022/11/30 06:17:55;;;;;;;51.20;26.40;;;9.40;99.90;;;;;;6255733;22;21210;-84
2022/11/30 06:20:25;;;;;;;50.30;26.40;;;9.40;99.90;;;;;;6249521;22;20450;-84
2022/11/30 06:22:51;;;;;;;45.80;26.13;;;9.50;99.90;;;;;;6251315;22;20416;-85
2022/11/30 06:25:18;;;;;;;51.17;27.50;;;9.40;99.90;;;;;;6263006;22;20399;-86
2022/11/30 06:27:45;;;;;;;46.33;27.17;;;9.60;99.90;;;;;;6262089;22;20408;-85
2022/11/30 06:30:15;;;;;;;52.17;26.20;;;9.80;99.90;;;;;;6284178;22;20462;-86
2022/11/30 06:33:03;;;;;;;52.77;25.53;;;9.80;99.90;;;;;;6260521;22;20399;-83
2022/11/30 06:35:34;;;;;;;46.83;26.67;;;9.70;99.90;;;;;;6283480;22;20514;-85
2022/11/30 06:38:43;;;;;;;40.67;22.90;;;9.80;99.90;;;;;;6253524;22;20670;-86
2022/11/30 06:41:25;;;;;;;34.90;20.63;;;9.80;99.90;;;;;;6243555;22;20897;-85
2022/11/30 06:43:52;;;;;;;37.63;21.17;;;9.70;99.90;;;;;;6245205;22;20415;-84
2022/11/30 06:46:20;;;;;;;35.60;20.73;;;9.50;99.90;;;;;;6276052;22;20435;-85
2022/11/30 06:49:06;;;;;;;35.73;20.10;;;9.50;99.90;;;;;;6288165;22;20438;-84
2022/11/30 06:51:33;;;;;;;39.03;22.57;;;9.40;99.90;;;;;;6245522;23;20639;-85
2022/11/30 06:54:00;;;;;;;32.00;18.43;;;9.30;99.90;;;;;;6242671;22;20486;-85
2022/11/30 06:56:37;;;;;;;;;;;;;;;;;;;;;
2022/11/30 06:59:19;;;;;;;35.20;20.10;;;9.30;99.90;;;;;;6276003;22;20411;-85
2022/11/30 07:02:13;;;;;;;29.43;19.37;;;9.20;99.90;;;;;;6278222;22;20415;-86
2022/11/30 07:04:43;;;;;;;34.23;19.77;;;9.20;99.90;;;;;;6253142;22;20435;-85
2022/11/30 07:07:30;;;;;;;27.77;17.87;;;9.30;99.90;;;;;;6278969;22;20432;-85
2022/11/30 07:10:18;;;;;;;27.57;18.60;;;9.40;99.90;;;;;;6279759;22;20465;-83
2022/11/30 07:12:57;;;;;;;30.80;18.90;;;9.40;99.90;;;;;;6254803;22;20403;-84
2022/11/30 07:15:41;;;;;;;25.57;16.97;;;9.40;99.90;;;;;;6256442;22;20403;-83
2022/11/30 07:18:51;;;;;;;26.67;15.63;;;9.40;99.90;;;;;;6262303;22;20422;-83
2022/11/30 07:21:45;;;;;;;23.97;16.07;;;9.40;99.90;;;;;;6282210;22;20412;-84
2022/11/30 07:28:07;;;;;;;29.13;17.43;;;9.40;99.90;;;;;;6199099;23;20418;-86
2022/11/30 07:30:39;;;;;;;27.27;17.63;;;9.30;99.90;;;;;;6200218;23;20442;-86
2022/11/30 07:34:06;;;;;;;29.40;17.43;;;9.20;99.90;;;;;;6259749;22;20392;-85
2022/11/30 07:37:41;;;;;;;;;;;;;;;;;;;;;
2022/11/30 07:40:51;;;;;;;27.30;16.33;;;9.20;99.90;;;;;;6190985;23;20398;-85
2022/11/30 07:44:49;;;;;;;;;;;;;;;;;;;;;
2022/11/30 07:47:24;;;;;;;24.73;15.23;;;9.20;99.90;;;;;;6251660;22;20470;-86
2022/11/30 07:53:57;;;;;;;28.90;18.23;;;9.20;99.90;;;;;;6279910;22;20407;-86
2022/11/30 07:56:49;;;;;;;;;;;;;;;;;;;;;
2022/11/30 07:59:41;;;;;;;26.30;16.07;;;9.30;99.90;;;;;;6278824;22;21200;-86
2022/11/30 08:05:48;;;;;;;23.43;15.20;;;9.20;99.90;;;;;;6272829;22;21707;-84
2022/11/30 08:08:49;;;;;;;23.33;15.40;;;9.40;99.90;;;;;;6286134;22;20416;-86
2022/11/30 08:11:35;;;;;;;24.40;15.50;;;9.20;99.90;;;;;;6279234;22;20403;-87
2022/11/30 08:14:22;;;;;;;25.00;15.20;;;9.20;99.90;;;;;;6279587;22;20919;-86
2022/11/30 08:16:48;;;;;;;21.57;14.30;;;9.30;99.90;;;;;;6278787;22;20450;-86
2022/11/30 08:19:28;;;;;;;24.60;15.93;;;9.60;99.90;;;;;;6279228;22;20426;-84
2022/11/30 08:25:02;;;;;;;21.97;14.40;;;9.40;99.90;;;;;;6244440;22;20452;-84
2022/11/30 08:27:54;;;;;;;24.90;15.47;;;9.30;99.90;;;;;;6191650;23;20504;-86
2022/11/30 08:30:51;;;;;;;24.17;15.87;;;9.20;99.90;;;;;;6219789;23;20902;-84
2022/11/30 08:34:51;;;;;;;21.47;14.10;;;9.20;99.90;;;;;;6216795;23;20440;-84
2022/11/30 08:40:14;;;;;;;20.57;14.60;;;9.20;99.90;;;;;;6251556;22;20436;-85
2022/11/30 08:43:10;;;;;;;23.50;15.63;;;9.30;99.90;;;;;;6231499;23;20436;-85
2022/11/30 08:46:03;;;;;;;36.90;17.07;;;9.50;99.90;;;;;;6233304;23;20450;-85
2022/11/30 08:49:35;;;;;;;30.10;16.50;;;9.40;99.90;;;;;;6237183;23;20455;-85
2022/11/30 08:52:55;;;;;;;21.00;13.73;;;9.40;99.90;;;;;;6234330;23;20444;-85
2022/11/30 08:59:39;;;;;;;20.17;14.37;;;9.30;99.90;;;;;;6230991;23;20389;-83
2022/11/30 09:02:26;;;;;;;24.10;14.67;;;9.30;99.90;;;;;;6254995;23;20918;-84
2022/11/30 09:05:26;;;;;;;24.87;15.27;;;9.30;99.90;;;;;;6228712;23;20419;-85
2022/11/30 09:08:42;;;;;;;25.17;15.37;;;9.30;99.90;;;;;;6226491;23;20409;-85
2022/11/30 09:11:31;;;;;;;25.73;16.00;;;9.30;99.90;;;;;;6228423;23;20452;-85
2022/11/30 09:14:44;;;;;;;24.03;15.60;;;9.30;99.90;;;;;;6228510;23;20436;-85
2022/11/30 09:17:41;;;;;;;23.27;15.13;;;9.30;99.90;;;;;;6233058;23;20459;-84
2022/11/30 09:20:50;;;;;;;;;;;;;;;;;;;;;
2022/11/30 09:23:53;;;;;;;27.20;17.40;;;9.30;99.90;;;;;;6161326;23;20430;-86
2022/11/30 09:29:50;;;;;;;28.67;17.90;;;9.20;99.90;;;;;;6256925;22;20453;-86
2022/11/30 09:32:35;;;;;;;22.80;16.63;;;9.20;99.90;;;;;;6226687;23;20831;-88
2022/11/30 09:35:32;;;;;;;25.93;16.70;;;9.20;99.90;;;;;;6235902;23;20393;-84
2022/11/30 09:38:20;;;;;;;23.60;16.60;;;9.20;99.90;;;;;;6224005;23;20417;-86
2022/11/30 09:41:25;;;;;;;23.43;16.90;;;9.20;99.90;;;;;;6223226;23;20508;-86
2022/11/30 09:44:50;;;;;;;;;;;;;;;;;;;;;
2022/11/30 09:48:26;;;;;;;28.00;16.93;;;9.30;99.90;;;;;;6226445;23;20828;-86
2022/11/30 09:51:14;;;;;;;30.20;17.40;;;9.30;99.90;;;;;;6209643;22;20432;-85
2022/11/30 09:54:22;;;;;;;;;;;;;;;;;;;;;
2022/11/30 10:00:55;;;;;;;31.77;19.67;;;9.20;99.90;;;;;;6233775;22;20413;-84
2022/11/30 10:04:09;;;;;;;31.20;18.00;;;9.10;99.90;;;;;;6216409;23;20405;-86
2022/11/30 10:07:37;;;;;;;30.50;19.83;;;9.30;99.90;;;;;;6224861;23;20425;-84
2022/11/30 10:14:54;;;;;;;32.37;21.23;;;9.20;99.90;;;;;;6222483;23;20372;-84
2022/11/30 10:17:56;;;;;;;31.07;20.20;;;9.30;99.90;;;;;;6237040;23;20472;-85
2022/11/30 10:21:30;;;;;;;33.10;19.90;;;9.30;99.90;;;;;;6129485;23;20396;-85
2022/11/30 10:25:00;;;;;;;34.17;21.67;;;9.20;99.90;;;;;;6227758;23;20473;-84
2022/11/30 10:28:18;;;;;;;37.90;21.67;;;9.10;99.90;;;;;;6132985;23;20510;-85
2022/11/30 10:31:53;;;;;;;27.40;19.27;;;9.10;99.90;;;;;;6072131;23;20453;-85
2022/11/30 10:34:48;;;;;;;36.80;21.53;;;9.20;99.90;;;;;;6076100;23;20427;-85
2022/11/30 10:44:54;;;;;;;36.57;20.70;;;9.20;99.90;;;;;;6288398;22;20415;-86
2022/11/30 10:48:15;;;;;;;38.87;22.67;;;9.30;99.90;;;;;;6059238;23;20454;-85
2022/11/30 10:51:28;;;;;;;34.80;21.77;;;9.10;99.90;;;;;;6119213;23;20465;-84
2022/11/30 10:54:27;;;;;;;32.50;22.10;;;9.10;99.90;;;;;;6122717;23;20477;-86
2022/11/30 11:00:56;;;;;;;43.63;23.67;;;9.10;99.90;;;;;;6249557;23;20596;-87
2022/11/30 11:03:57;;;;;;;37.27;23.57;;;9.10;99.90;;;;;;6222239;23;20459;-85
2022/11/30 11:07:23;;;;;;;41.17;24.10;;;9.20;99.90;;;;;;6249921;23;20444;-84
2022/11/30 11:14:43;;;;;;;45.87;26.93;;;9.20;99.90;;;;;;6157991;23;20420;-85
2022/11/30 11:21:20;;;;;;;41.60;24.73;;;9.20;99.90;;;;;;6172408;23;20452;-85
2022/11/30 11:24:27;;;;;;;36.60;24.10;;;9.30;99.90;;;;;;6229839;23;20478;-84
2022/11/30 11:27:43;;;;;;;;;;;;;;;;;;;;;
2022/11/30 11:30:45;;;;;;;;;;;;;;;;;;;;;
2022/11/30 11:33:35;;;;;;;40.23;25.43;;;9.30;99.90;;;;;;6247690;23;20423;-84
2022/11/30 11:39:16;;;;;;;39.17;24.00;;;9.20;99.90;;;;;;6250586;23;20439;-85
2022/11/30 11:42:57;;;;;;;38.80;25.50;;;9.20;99.90;;;;;;6250788;23;20851;-84
2022/11/30 11:45:58;;;;;;;36.87;24.20;;;9.20;99.90;;;;;;6198699;23;20444;-85
2022/11/30 11:49:18;;;;;;;39.00;25.20;;;9.20;99.90;;;;;;6224886;23;20411;-85
2022/11/30 11:52:23;;;;;;;40.20;25.17;;;9.20;99.90;;;;;;6236855;23;20491;-86
2022/11/30 11:55:33;;;;;;;40.80;25.60;;;9.20;99.90;;;;;;6222878;23;20797;-85
2022/11/30 12:02:58;;;;;;;;;;;;;;;;;;;;;
2022/11/30 12:06:28;;;;;;;39.60;26.13;;;9.30;99.90;;;;;;6246255;22;20463;-86
2022/11/30 12:09:12;;;;;;;42.33;25.40;;;9.20;99.90;;;;;;6224042;23;20940;-85
2022/11/30 12:12:09;;;;;;;;;;;;;;;;;;;;;
2022/11/30 12:15:22;;;;;;;;;;;;;;;;;;;;;
2022/11/30 12:18:17;;;;;;;49.23;27.43;;;9.10;99.90;;;;;;6221933;23;20729;-85
2022/11/30 12:21:21;;;;;;;45.90;29.27;;;9.10;99.90;;;;;;6220147;23;20421;-85
2022/11/30 12:24:16;;;;;;;39.47;25.40;;;9.20;99.90;;;;;;6178728;23;20409;-86
2022/11/30 12:27:11;;;;;;;40.30;26.30;;;9.20;99.90;;;;;;6216296;23;20425;-83
2022/11/30 12:30:08;;;;;;;41.77;25.57;;;9.20;99.90;;;;;;6217415;23;20410;-85
2022/11/30 12:32:57;;;;;;;42.00;26.57;;;9.20;99.90;;;;;;6224200;23;20409;-85
2022/11/30 12:36:07;;;;;;;43.17;27.20;;;9.10;99.90;;;;;;6218276;23;20893;-84
2022/11/30 12:39:12;;;;;;;51.97;28.97;;;9.20;99.90;;;;;;6220368;23;20405;-85
2022/11/30 12:41:58;;;;;;;62.70;29.30;;;9.10;99.90;;;;;;6177334;23;20444;-85
2022/11/30 12:45:32;;;;;;;44.10;27.67;;;9.10;99.90;;;;;;6194997;23;20491;-84
2022/11/30 12:48:05;;;;;;;42.23;26.70;;;9.20;99.90;;;;;;6028791;23;21030;-84
2022/11/30 12:51:05;;;;;;;51.43;28.53;;;9.20;99.90;;;;;;6172887;23;20525;-84
2022/11/30 12:53:47;;;;;;;50.33;28.23;;;9.10;99.90;;;;;;6230000;23;20429;-86
2022/11/30 12:57:07;;;;;;;45.13;27.00;;;9.20;99.90;;;;;;6197447;23;20430;-86
2022/11/30 13:00:00;;;;;;;41.13;26.23;;;9.30;99.90;;;;;;6211629;23;20421;-84
2022/11/30 13:03:02;;;;;;;46.33;26.27;;;9.30;99.90;;;;;;6220354;23;20405;-85
2022/11/30 13:05:45;;;;;;;39.30;26.60;;;9.30;99.90;;;;;;6213740;23;20413;-86
2022/11/30 13:08:24;;;;;;;41.93;25.93;;;9.30;99.90;;;;;;6188536;23;20425;-85
2022/11/30 13:11:05;;;;;;;43.27;25.40;;;9.60;99.90;;;;;;6215970;23;20434;-86
2022/11/30 13:13:35;;;;;;;39.37;25.80;;;9.70;99.90;;;;;;6188938;23;20406;-86
2022/11/30 13:16:33;;;;;;;38.10;24.07;;;9.60;99.90;;;;;;6081423;23;20429;-84
2022/11/30 13:19:49;;;;;;;34.30;23.03;;;9.60;99.90;;;;;;6089747;23;20405;-84
2022/11/30 13:26:26;;;;;;;34.43;23.10;;;9.40;99.90;;;;;;6092550;23;20976;-85
2022/11/30 13:29:33;;;;;;;38.80;23.20;;;9.40;99.90;;;;;;6101302;23;20453;-83
2022/11/30 13:32:32;;;;;;;33.87;23.00;;;9.40;99.90;;;;;;6099403;23;20417;-83
2022/11/30 13:36:01;;;;;;;37.90;21.97;;;9.40;99.90;;;;;;6095103;23;20499;-84
2022/11/30 13:38:58;;;;;;;37.70;23.87;;;9.30;99.90;;;;;;6097406;23;20432;-84
2022/11/30 13:41:46;;;;;;;37.67;23.90;;;9.50;99.90;;;;;;6095551;23;20448;-86
2022/11/30 13:44:52;;;;;;;36.87;23.47;;;9.40;99.90;;;;;;6097417;23;20418;-85
2022/11/30 13:48:00;;;;;;;45.63;24.00;;;9.40;99.90;;;;;;6145864;23;20475;-85
2022/11/30 13:50:57;;;;;;;45.10;24.53;;;9.20;99.90;;;;;;6220836;23;21428;-84
2022/11/30 13:53:45;;;;;;;37.37;23.93;;;9.30;99.90;;;;;;6196766;23;20413;-85
2022/11/30 13:56:56;;;;;;;44.40;24.27;;;9.60;99.90;;;;;;6209329;23;20564;-84
2022/11/30 13:59:58;;;;;;;41.17;23.83;;;9.50;99.90;;;;;;6249721;23;20434;-85
2022/11/30 14:10:05;;;;;;;38.30;24.23;;;9.30;99.90;;;;;;6246004;22;20522;-85
2022/11/30 14:13:12;;;;;;;37.93;24.13;;;9.40;99.90;;;;;;6227120;23;20474;-85
2022/11/30 14:25:49;;;;;;;;;;;;;;;;;;;;;
2022/11/30 14:29:18;;;;;;;33.17;21.60;;;9.30;99.90;;;;;;6282771;22;20426;-86
2022/11/30 14:32:36;;;;;;;;;;;;;;;;;;;;;
2022/11/30 14:39:03;;;;;;;;;;;;;;;;;;;;;
2022/11/30 14:42:20;;;;;;;30.40;21.47;;;9.60;99.90;;;;;;6050111;23;20393;-87
2022/11/30 14:45:42;;;;;;;30.77;19.47;;;9.60;99.90;;;;;;5958564;24;20445;-85
2022/11/30 14:48:45;;;;;;;31.53;20.10;;;9.50;99.90;;;;;;6070649;23;20463;-85
2022/11/30 14:55:26;;;;;;;33.40;21.20;;;9.30;99.90;;;;;;6075081;23;20413;-85
2022/11/30 15:08:38;;;;;;;;;;;;;;;;;;;;;
2022/11/30 15:32:24;;;;;;;29.97;21.03;;;9.20;99.90;;;;;;6177856;23;20458;-84
2022/11/30 15:35:58;;;;;;;;;;;;;;;;;;;;;
2022/11/30 15:39:34;;;;;;;;;;;;;;;;;;;;;
2022/11/30 15:42:47;;;;;;;31.50;20.60;;;9.30;99.90;;;;;;6162022;23;20414;-85
2022/11/30 15:45:40;;;;;;;30.13;20.40;;;9.20;99.90;;;;;;6165935;23;20450;-83
2022/11/30 15:49:13;;;;;;;35.20;21.27;;;9.20;99.90;;;;;;6150153;23;20495;-85
2022/11/30 15:52:14;;;;;;;34.17;20.40;;;9.20;99.90;;;;;;6117104;23;20457;-85
2022/11/30 15:55:51;;;;;;;36.57;22.30;;;9.20;99.90;;;;;;6161179;23;20395;-84
2022/11/30 16:03:01;;;;;;;39.17;23.20;;;9.40;99.90;;;;;;6165687;23;20367;-85
2022/11/30 16:09:09;;;;;;;39.30;22.23;;;9.30;99.90;;;;;;6177999;23;20431;-86
2022/11/30 16:12:14;;;;;;;33.37;21.63;;;9.20;99.90;;;;;;6175972;23;20482;-87
2022/11/30 16:15:58;;;;;;;35.30;20.97;;;9.10;99.90;;;;;;6159842;23;20435;-85
2022/11/30 16:19:23;;;;;;;36.47;23.70;;;9.10;99.90;;;;;;6158400;23;20404;-88
2022/11/30 16:22:29;;;;;;;30.83;20.57;;;9.10;99.90;;;;;;6180758;23;20461;-88
2022/11/30 16:25:47;;;;;;;33.57;22.53;;;9.10;99.90;;;;;;6060588;23;20452;-85
2022/11/30 16:28:49;;;;;;;32.00;21.37;;;9.30;99.90;;;;;;6064639;23;20413;-86
2022/11/30 16:31:56;;;;;;;;;;;;;;;;;;;;;
2022/11/30 16:35:01;;;;;;;34.87;21.10;;;9.30;99.90;;;;;;6074465;23;20421;-86
2022/11/30 16:37:58;;;;;;;;;;;;;;;;;;;;;
2022/11/30 16:41:16;;;;;;;31.80;20.53;;;9.40;99.90;;;;;;6072938;23;20426;-85
2022/11/30 16:47:38;;;;;;;36.17;22.00;;;9.30;99.90;;;;;;6049980;23;20445;-86
2022/11/30 16:51:04;;;;;;;30.37;19.50;;;9.30;99.90;;;;;;6054491;23;20485;-85
2022/11/30 16:54:26;;;;;;;33.33;21.10;;;9.30;99.90;;;;;;5987819;24;20392;-85
2022/11/30 17:01:00;;;;;;;;;;;;;;;;;;;;;
2022/11/30 17:04:00;;;;;;;27.97;18.67;;;9.20;99.90;;;;;;5935996;24;20422;-85
2022/11/30 17:07:15;;;;;;;27.20;19.77;;;9.20;99.90;;;;;;5936430;24;20442;-85
2022/11/30 17:10:29;;;;;;;26.70;18.27;;;9.10;99.90;;;;;;5924764;24;20413;-86
2022/11/30 17:13:20;;;;;;;30.10;19.47;;;9.30;99.90;;;;;;5933772;24;20524;-86
2022/11/30 17:16:22;;;;;;;;;;;;;;;;;;;;;
2022/11/30 17:19:24;;;;;;;28.80;19.17;;;9.30;99.90;;;;;;5918650;24;20412;-87
2022/11/30 17:22:35;;;;;;;24.93;17.73;;;9.30;99.90;;;;;;5931002;24;20615;-86
2022/11/30 17:25:20;;;;;;;24.63;17.83;;;9.30;99.90;;;;;;5967732;24;20416;-85
2022/11/30 17:28:18;;;;;;;27.00;17.03;;;9.30;99.90;;;;;;5943349;24;20504;-87
2022/11/30 17:31:05;;;;;;;24.60;17.97;;;9.30;99.90;;;;;;5985783;23;20445;-87
2022/11/30 17:34:05;;;;;;;26.43;17.70;;;9.20;99.90;;;;;;6076056;23;20429;-86
2022/11/30 17:37:17;;;;;;;26.60;17.93;;;9.30;99.90;;;;;;6075805;23;20486;-86
2022/11/30 17:40:17;;;;;;;25.60;17.33;;;9.30;99.90;;;;;;6073204;23;20453;-85
2022/11/30 17:43:03;;;;;;;23.90;17.13;;;9.60;99.90;;;;;;6073796;23;20414;-88
2022/11/30 17:45:57;;;;;;;25.20;17.97;;;9.40;99.90;;;;;;6027405;23;20421;-86
2022/11/30 17:48:40;;;;;;;23.70;16.87;;;9.30;99.90;;;;;;6053440;23;20434;-85
2022/11/30 17:54:33;;;;;;;27.27;19.70;;;9.30;99.90;;;;;;6160528;23;20399;-86
2022/11/30 18:01:41;;;;;;;26.07;17.13;;;9.50;99.90;;;;;;6171504;23;20387;-88
2022/11/30 18:08:54;;;;;;;23.67;17.13;;;9.30;99.90;;;;;;6169644;23;20422;-81
2022/11/30 18:23:40;;;;;;;26.20;18.40;;;9.50;99.90;;;;;;5927508;24;20391;-82
2022/11/30 18:27:11;;;;;;;24.67;17.93;;;9.60;99.90;;;;;;5899433;24;20935;-82
2022/11/30 18:30:07;;;;;;;;;;;;;;;;;;;;;
2022/11/30 18:33:12;;;;;;;23.57;18.57;;;9.60;99.90;;;;;;5970405;23;20456;-82
2022/11/30 18:39:38;;;;;;;26.80;17.17;;;9.50;99.90;;;;;;6248406;22;20456;-84
2022/11/30 18:42:47;;;;;;;25.20;16.00;;;9.50;99.90;;;;;;6125910;23;21016;-83
2022/11/30 18:49:50;;;;;;;26.37;16.70;;;9.70;99.90;;;;;;6164383;23;20410;-85
2022/11/30 18:53:03;;;;;;;21.07;15.17;;;9.50;99.90;;;;;;6186775;23;20839;-85
2022/11/30 18:56:32;;;;;;;22.33;15.43;;;9.50;99.90;;;;;;6166501;23;20461;-86
2022/11/30 18:59:33;;;;;;;23.73;16.50;;;9.50;99.90;;;;;;6153894;23;20396;-82
2022/11/30 19:02:45;;;;;;;;;;;;;;;;;;;;;
2022/11/30 19:06:30;;;;;;;;;;;;;;;;;;;;;
2022/11/30 19:10:02;;;;;;;20.43;13.70;;;9.50;99.90;;;;;;6246602;23;20427;-82
2022/11/30 19:13:15;;;;;;;18.40;11.97;;;9.40;99.90;;;;;;6134737;23;20530;-83
2022/11/30 19:16:30;;;;;;;24.40;15.50;;;9.60;99.90;;;;;;6145773;23;20489;-82
2022/11/30 19:23:43;;;;;;;22.50;14.87;;;9.30;99.90;;;;;;6072976;23;20413;-82
2022/11/30 19:26:54;;;;;;;19.47;12.47;;;9.30;99.90;;;;;;6046604;23;20497;-83
2022/11/30 19:29:30;;;;;;;19.53;12.37;;;9.30;99.90;;;;;;6066534;23;20481;-83
2022/11/30 19:32:28;;;;;;;19.73;13.90;;;9.60;99.90;;;;;;6064955;23;20458;-83
2022/11/30 19:35:42;;;;;;;16.60;11.50;;;9.60;99.90;;;;;;6069568;23;20421;-85
2022/11/30 19:38:55;;;;;;;;;;;;;;;;;;;;;
2022/11/30 19:42:16;;;;;;;20.87;12.57;;;9.50;99.90;;;;;;6068900;23;20406;-85
2022/11/30 19:45:32;;;;;;;;;;;;;;;;;;;;;
2022/11/30 19:48:40;;;;;;;19.23;12.00;;;9.50;99.90;;;;;;6102226;23;20478;-85
2022/11/30 19:54:47;;;;;;;18.43;12.90;;;9.50;99.90;;;;;;6227487;23;20408;-83
2022/11/30 19:57:55;;;;;;;18.67;13.20;;;9.70;99.90;;;;;;6251381;22;20477;-85
2022/11/30 20:01:24;;;;;;;15.67;11.77;;;9.80;99.90;;;;;;6260899;22;20368;-86
2022/11/30 20:07:31;;;;;;;17.53;11.40;;;10.00;99.90;;;;;;6281682;22;20426;-85
2022/11/30 20:10:23;;;;;;;15.13;10.10;;;9.70;99.90;;;;;;6254942;22;20431;-86
2022/11/30 20:13:40;;;;;;;16.30;11.87;;;9.90;99.90;;;;;;6248735;22;20400;-86